Time;durP1;ratioP1;P1;durP2;ratioP2;P2;SDS_P1;SDS_P2;PMS_P1;PMS_P2;Temp;Humidity;BMP_temperature;BMP_pressure;BME280_temperature;BME280_humidity;BME280_pressure;Samples;Min_cycle;Max_cycle;Signal;HPM_P1;HPM_P2
2021/02/09 00:00:02;;;;;;;4.7;2.2;;;;;;;;;;;;;
2021/02/09 00:02:27;;;;;;;3.2;1.8;;;;;;;;;;;;;
2021/02/09 00:04:53;;;;;;;9.7;2.3;;;;;;;;;;;;;
2021/02/09 00:07:18;;;;;;;3.5;1.9;;;;;;;;;;;;;
2021/02/09 00:09:45;;;;;;;3;2;;;;;;;;;;;;;
2021/02/09 00:12:13;;;;;;;4.2;2.3;;;;;;;;;;;;;
2021/02/09 00:14:42;;;;;;;3.3;2.2;;;;;;;;;;;;;
2021/02/09 00:17:07;;;;;;;5.4;1.9;;;;;;;;;;;;;
2021/02/09 00:19:37;;;;;;;3.4;1.9;;;;;;;;;;;;;
2021/02/09 00:22:07;;;;;;;2.3;1.3;;;;;;;;;;;;;
2021/02/09 00:24:38;;;;;;;1.9;1.3;;;;;;;;;;;;;
2021/02/09 00:27:03;;;;;;;1.8;1.2;;;;;;;;;;;;;
2021/02/09 00:29:28;;;;;;;2;1.4;;;;;;;;;;;;;
2021/02/09 00:31:53;;;;;;;5;1;;;;;;;;;;;;;
2021/02/09 00:34:18;;;;;;;0.8;0.7;;;;;;;;;;;;;
2021/02/09 00:36:44;;;;;;;2.2;1.1;;;;;;;;;;;;;
2021/02/09 00:39:09;;;;;;;2;1.4;;;;;;;;;;;;;
2021/02/09 00:41:34;;;;;;;1.5;1.1;;;;;;;;;;;;;
2021/02/09 00:44:00;;;;;;;1.2;1;;;;;;;;;;;;;
2021/02/09 00:46:25;;;;;;;1.5;1.3;;;;;;;;;;;;;
2021/02/09 00:48:52;;;;;;;2;1.3;;;;;;;;;;;;;
2021/02/09 00:51:17;;;;;;;3;1.8;;;;;;;;;;;;;
2021/02/09 00:53:43;;;;;;;3.5;1.6;;;;;;;;;;;;;
2021/02/09 00:56:08;;;;;;;4.4;1.5;;;;;;;;;;;;;
2021/02/09 00:58:34;;;;;;;3.4;1.6;;;;;;;;;;;;;
2021/02/09 01:00:59;;;;;;;1.7;1.3;;;;;;;;;;;;;
2021/02/09 01:03:25;;;;;;;2.9;0.6;;;;;;;;;;;;;
2021/02/09 01:05:50;;;;;;;2.4;1.4;;;;;;;;;;;;;
2021/02/09 01:08:16;;;;;;;1.2;0.9;;;;;;;;;;;;;
2021/02/09 01:10:42;;;;;;;2.5;1.4;;;;;;;;;;;;;
2021/02/09 01:13:12;;;;;;;1.3;1.2;;;;;;;;;;;;;
2021/02/09 01:15:47;;;;;;;1.5;1;;;;;;;;;;;;;
2021/02/09 01:18:18;;;;;;;0.8;0.8;;;;;;;;;;;;;
2021/02/09 01:20:51;;;;;;;1.5;1.1;;;;;;;;;;;;;
2021/02/09 01:23:20;;;;;;;6.6;1.7;;;;;;;;;;;;;
2021/02/09 01:25:52;;;;;;;2.2;1.2;;;;;;;;;;;;;
2021/02/09 01:28:21;;;;;;;1.7;1.3;;;;;;;;;;;;;
2021/02/09 01:30:53;;;;;;;1.7;1.3;;;;;;;;;;;;;
2021/02/09 01:33:22;;;;;;;1.2;1;;;;;;;;;;;;;
2021/02/09 01:35:48;;;;;;;2.4;1.3;;;;;;;;;;;;;
2021/02/09 01:38:13;;;;;;;4.2;1.4;;;;;;;;;;;;;
2021/02/09 01:40:40;;;;;;;1.8;1.1;;;;;;;;;;;;;
2021/02/09 01:43:07;;;;;;;2.6;1;;;;;;;;;;;;;
2021/02/09 01:45:31;;;;;;;4.5;1.2;;;;;;;;;;;;;
2021/02/09 01:47:57;;;;;;;2.9;1.1;;;;;;;;;;;;;
2021/02/09 01:50:22;;;;;;;3.3;1.2;;;;;;;;;;;;;
2021/02/09 01:52:48;;;;;;;2.2;1.4;;;;;;;;;;;;;
2021/02/09 01:55:13;;;;;;;0.8;0.8;;;;;;;;;;;;;
2021/02/09 01:57:39;;;;;;;1.4;1.2;;;;;;;;;;;;;
2021/02/09 02:00:04;;;;;;;2.7;1.4;;;;;;;;;;;;;
2021/02/09 02:02:30;;;;;;;2.5;1.5;;;;;;;;;;;;;
2021/02/09 02:04:55;;;;;;;3.3;1.2;;;;;;;;;;;;;
2021/02/09 02:07:21;;;;;;;1.9;1.4;;;;;;;;;;;;;
2021/02/09 02:09:46;;;;;;;4.1;1.1;;;;;;;;;;;;;
2021/02/09 02:12:13;;;;;;;1.3;1.1;;;;;;;;;;;;;
2021/02/09 02:14:38;;;;;;;2.4;1.2;;;;;;;;;;;;;
2021/02/09 02:17:03;;;;;;;0.9;0.9;;;;;;;;;;;;;
2021/02/09 02:19:29;;;;;;;2.4;1.6;;;;;;;;;;;;;
2021/02/09 02:21:54;;;;;;;1.4;0.8;;;;;;;;;;;;;
2021/02/09 02:24:19;;;;;;;0.8;0.6;;;;;;;;;;;;;
2021/02/09 02:26:44;;;;;;;2.2;1;;;;;;;;;;;;;
2021/02/09 02:29:09;;;;;;;0.8;0.8;;;;;;;;;;;;;
2021/02/09 02:31:35;;;;;;;1;0.7;;;;;;;;;;;;;
2021/02/09 02:34:01;;;;;;;0.8;0.7;;;;;;;;;;;;;
2021/02/09 02:36:26;;;;;;;0.5;0.5;;;;;;;;;;;;;
2021/02/09 02:38:51;;;;;;;1.7;0.8;;;;;;;;;;;;;
2021/02/09 02:41:17;;;;;;;3.5;0.8;;;;;;;;;;;;;
2021/02/09 02:43:41;;;;;;;0.6;0.6;;;;;;;;;;;;;
2021/02/09 02:46:07;;;;;;;2.5;0.7;;;;;;;;;;;;;
2021/02/09 02:48:32;;;;;;;0.7;0.7;;;;;;;;;;;;;
2021/02/09 02:50:58;;;;;;;1.6;0.8;;;;;;;;;;;;;
2021/02/09 02:53:23;;;;;;;1.6;1;;;;;;;;;;;;;
2021/02/09 02:55:50;;;;;;;1.1;0.7;;;;;;;;;;;;;
2021/02/09 02:58:15;;;;;;;0.6;0.6;;;;;;;;;;;;;
2021/02/09 03:00:41;;;;;;;1.6;0.7;;;;;;;;;;;;;
2021/02/09 03:03:06;;;;;;;0.9;0.7;;;;;;;;;;;;;
2021/02/09 03:05:34;;;;;;;0.5;0.5;;;;;;;;;;;;;
2021/02/09 03:07:59;;;;;;;1.3;0.8;;;;;;;;;;;;;
2021/02/09 03:10:27;;;;;;;1.3;1;;;;;;;;;;;;;
2021/02/09 03:12:52;;;;;;;1.4;0.9;;;;;;;;;;;;;
2021/02/09 03:15:18;;;;;;;0.5;0.5;;;;;;;;;;;;;
2021/02/09 03:17:49;;;;;;;0.4;0.4;;;;;;;;;;;;;
2021/02/09 03:20:08;;;;;;;0.5;0.5;;;;;;;;;;;;;
2021/02/09 03:22:35;;;;;;;0.2;0.2;;;;;;;;;;;;;
2021/02/09 03:25:00;;;;;;;2.4;0.7;;;;;;;;;;;;;
2021/02/09 03:27:27;;;;;;;0.4;0.4;;;;;;;;;;;;;
2021/02/09 03:29:52;;;;;;;1.3;0.9;;;;;;;;;;;;;
2021/02/09 03:32:18;;;;;;;1;0.6;;;;;;;;;;;;;
2021/02/09 03:34:43;;;;;;;0.7;0.6;;;;;;;;;;;;;
2021/02/09 03:37:10;;;;;;;0.5;0.5;;;;;;;;;;;;;
2021/02/09 03:39:35;;;;;;;1.6;0.6;;;;;;;;;;;;;
2021/02/09 03:42:01;;;;;;;2.1;1.1;;;;;;;;;;;;;
2021/02/09 03:44:26;;;;;;;0.5;0.5;;;;;;;;;;;;;
2021/02/09 03:46:52;;;;;;;0.8;0.8;;;;;;;;;;;;;
2021/02/09 03:49:17;;;;;;;0.3;0.3;;;;;;;;;;;;;
2021/02/09 03:51:43;;;;;;;2.8;0.6;;;;;;;;;;;;;
2021/02/09 03:54:08;;;;;;;0.5;0.5;;;;;;;;;;;;;
2021/02/09 03:56:34;;;;;;;0.5;0.5;;;;;;;;;;;;;
2021/02/09 03:58:59;;;;;;;0.4;0.4;;;;;;;;;;;;;
2021/02/09 04:02:31;;;;;;;0.8;0.5;;;;;;;0.52;82.1875;918.8883;;;;
2021/02/09 04:05:01;;;;;;;0.3;0.3;;;;;;;0.45;82.29785;918.8622;;;;
2021/02/09 04:07:27;;;;;;;0.6;0.5;;;;;;;0.52;82.51074;918.8287;;;;
2021/02/09 04:09:58;;;;;;;0.5;0.5;;;;;;;0.6;81.79102;918.8535;;;;
2021/02/09 04:12:23;;;;;;;0.6;0.6;;;;;;;0.59;81.50098;918.829;;;;
2021/02/09 04:14:53;;;;;;;0.6;0.6;;;;;;;0.64;81.90918;918.9647;;;;
2021/02/09 04:17:20;;;;;;;0.6;0.6;;;;;;;0.83;81.30957;918.9216;;;;
2021/02/09 04:19:48;;;;;;;5.7;1;;;;;;;0.79;81.10156;918.8564;;;;
2021/02/09 04:22:13;;;;;;;2;1.1;;;;;;;0.72;81.35547;918.7684;;;;
2021/02/09 04:24:45;;;;;;;0.6;0.5;;;;;;;0.66;81.48828;918.7535;;;;
2021/02/09 04:27:10;;;;;;;0.6;0.6;;;;;;;0.69;81.16309;918.8097;;;;
2021/02/09 04:29:39;;;;;;;2.2;0.9;;;;;;;0.8;80.51172;918.7101;;;;
2021/02/09 04:32:05;;;;;;;0.8;0.8;;;;;;;0.91;80.36719;918.668;;;;
2021/02/09 04:34:32;;;;;;;2.2;0.7;;;;;;;1.05;79.92383;918.692;;;;
2021/02/09 04:36:58;;;;;;;0.9;0.7;;;;;;;0.89;79.625;918.7006;;;;
2021/02/09 04:39:26;;;;;;;1.6;0.7;;;;;;;0.8;80.15527;918.6545;;;;
2021/02/09 04:41:51;;;;;;;0.5;0.5;;;;;;;0.64;80.66113;918.6351;;;;
2021/02/09 04:44:22;;;;;;;2.4;0.9;;;;;;;0.66;80.80859;918.5922;;;;
2021/02/09 04:46:50;;;;;;;1;0.9;;;;;;;0.67;80.93457;918.6778;;;;
2021/02/09 04:49:15;;;;;;;1.6;0.9;;;;;;;0.88;80.66113;918.6739;;;;
2021/02/09 04:51:44;;;;;;;0.9;0.7;;;;;;;1.08;80.3418;918.7285;;;;
2021/02/09 04:54:09;;;;;;;2.9;1.1;;;;;;;0.96;79.46973;918.7133;;;;
2021/02/09 04:56:39;;;;;;;1.4;1.1;;;;;;;0.87;80.0127;918.6714;;;;
2021/02/09 04:59:04;;;;;;;2.7;0.8;;;;;;;0.94;79.83496;918.666;;;;
2021/02/09 05:01:33;;;;;;;1.3;1;;;;;;;0.89;79.79297;918.7374;;;;
2021/02/09 05:03:58;;;;;;;0.3;0.3;;;;;;;0.8;79.9873;918.6803;;;;
2021/02/09 05:06:25;;;;;;;1.8;0.9;;;;;;;0.79;80.06445;918.6724;;;;
2021/02/09 05:08:50;;;;;;;1.1;1;;;;;;;0.8;80.03223;918.6418;;;;
2021/02/09 05:11:16;;;;;;;0.8;0.8;;;;;;;0.8;79.85352;918.6212;;;;
2021/02/09 05:13:41;;;;;;;1.5;1;;;;;;;0.86;79.60742;918.596;;;;
2021/02/09 05:16:09;;;;;;;1.4;0.7;;;;;;;0.89;79.57129;918.5753;;;;
2021/02/09 05:18:38;;;;;;;4.5;1.2;;;;;;;0.79;80.08496;918.5681;;;;
2021/02/09 05:21:09;;;;;;;1.2;1;;;;;;;0.84;80.0166;918.5104;;;;
2021/02/09 05:23:40;;;;;;;2.6;0.9;;;;;;;0.79;80.30957;918.4671;;;;
2021/02/09 05:26:10;;;;;;;1.2;0.8;;;;;;;0.83;80.41699;918.5525;;;;
2021/02/09 05:28:32;;;;;;;0.5;0.5;;;;;;;0.78;80.7207;918.5876;;;;
2021/02/09 05:31:06;;;;;;;0.4;0.4;;;;;;;0.9;80.7207;918.6569;;;;
2021/02/09 05:33:33;;;;;;;0.4;0.4;;;;;;;0.89;80.28418;918.6803;;;;
2021/02/09 05:35:58;;;;;;;1;0.7;;;;;;;0.89;80.33008;918.6631;;;;
2021/02/09 05:38:29;;;;;;;0.6;0.6;;;;;;;0.9;80.0752;918.6506;;;;
2021/02/09 05:41:02;;;;;;;4;1;;;;;;;1.06;80.01465;918.6161;;;;
2021/02/09 05:43:32;;;;;;;2.1;0.9;;;;;;;0.91;79.68457;918.6877;;;;
2021/02/09 05:46:03;;;;;;;0.8;0.6;;;;;;;0.96;79.54785;918.7023;;;;
2021/02/09 05:48:34;;;;;;;2.3;1.5;;;;;;;0.92;79.39551;918.6525;;;;
2021/02/09 05:51:05;;;;;;;1.8;0.9;;;;;;;0.77;80.12793;918.568;;;;
2021/02/09 05:53:30;;;;;;;1;0.7;;;;;;;0.67;80.19824;918.5588;;;;
2021/02/09 05:55:59;;;;;;;0.8;0.8;;;;;;;0.8;80.17773;918.6983;;;;
2021/02/09 05:58:25;;;;;;;5.6;1.4;;;;;;;0.71;80.23633;918.704;;;;
2021/02/09 06:00:51;;;;;;;3.2;1.2;;;;;;;0.85;80.01855;918.7134;;;;
2021/02/09 06:03:22;;;;;;;1.4;1;;;;;;;0.85;80.04297;918.7949;;;;
2021/02/09 06:05:47;;;;;;;2.4;1.2;;;;;;;0.96;79.65918;918.7579;;;;
2021/02/09 06:08:23;;;;;;;2.2;1.1;;;;;;;1.01;79.14648;918.8176;;;;
2021/02/09 06:11:00;;;;;;;0.6;0.6;;;;;;;0.99;78.79492;918.8022;;;;
2021/02/09 06:13:34;;;;;;;2.2;1.4;;;;;;;0.99;78.7168;918.955;;;;
2021/02/09 06:16:00;;;;;;;1.3;0.8;;;;;;;1.02;78.69043;918.9565;;;;
2021/02/09 06:18:30;;;;;;;1;0.7;;;;;;;1.04;78.74805;918.8478;;;;
2021/02/09 06:20:56;;;;;;;1.4;1.2;;;;;;;1.08;78.3877;918.7598;;;;
2021/02/09 06:23:21;;;;;;;7.2;1.1;;;;;;;0.94;79.49023;918.8808;;;;
2021/02/09 06:25:54;;;;;;;3.1;1.1;;;;;;;1.02;80.09766;918.9182;;;;
2021/02/09 06:28:24;;;;;;;7.5;1;;;;;;;1.16;79.54199;918.9575;;;;
2021/02/09 06:30:56;;;;;;;16.6;1.3;;;;;;;1.24;78.94336;919.0207;;;;
2021/02/09 06:33:27;;;;;;;1.1;0.8;;;;;;;1.26;78.49902;919.0108;;;;
2021/02/09 06:35:52;;;;;;;0.8;0.8;;;;;;;1.29;78.35938;919.0981;;;;
2021/02/09 06:38:17;;;;;;;1;0.7;;;;;;;1.4;78.45898;919.2033;;;;
2021/02/09 06:40:42;;;;;;;1.4;1.1;;;;;;;1.41;78.13477;919.1838;;;;
2021/02/09 06:43:10;;;;;;;1.9;0.7;;;;;;;1.4;78.27832;919.2609;;;;
2021/02/09 06:45:41;;;;;;;1.1;0.9;;;;;;;1.4;78.35645;919.25;;;;
2021/02/09 06:48:07;;;;;;;1.7;1.1;;;;;;;1.47;78.14844;919.3391;;;;
2021/02/09 06:50:31;;;;;;;2.7;0.9;;;;;;;1.61;77.87109;919.3699;;;;
2021/02/09 06:52:57;;;;;;;2.3;1;;;;;;;1.77;76.99512;919.3734;;;;
2021/02/09 06:55:22;;;;;;;0.9;0.8;;;;;;;1.83;75.9082;919.4559;;;;
2021/02/09 06:57:47;;;;;;;1.9;1.2;;;;;;;1.85;75.55371;919.5204;;;;
2021/02/09 07:00:12;;;;;;;1.4;0.9;;;;;;;1.86;74.95313;919.5417;;;;
2021/02/09 07:02:40;;;;;;;3.4;1.3;;;;;;;1.97;75.15137;919.51;;;;
2021/02/09 07:05:05;;;;;;;1.3;0.8;;;;;;;2.04;73.83008;919.5644;;;;
2021/02/09 07:07:31;;;;;;;1.2;1;;;;;;;2.08;73.99316;919.5812;;;;
2021/02/09 07:09:56;;;;;;;1.1;0.8;;;;;;;2.23;73.82031;919.5313;;;;
2021/02/09 07:12:25;;;;;;;2.4;1.3;;;;;;;2.37;72.64355;919.6755;;;;
2021/02/09 07:14:50;;;;;;;1.2;0.8;;;;;;;2.32;71.85352;919.657;;;;
2021/02/09 07:17:21;;;;;;;1.2;1;;;;;;;2.31;73.3623;919.6852;;;;
2021/02/09 07:19:52;;;;;;;1.9;1.1;;;;;;;2.34;71.85645;919.7475;;;;
2021/02/09 07:22:18;;;;;;;0.9;0.7;;;;;;;2.44;72.91504;919.7511;;;;
2021/02/09 07:24:46;;;;;;;1.6;1.2;;;;;;;2.55;72.03906;919.9006;;;;
2021/02/09 07:27:16;;;;;;;5.2;1.7;;;;;;;2.66;72.59375;919.8381;;;;
2021/02/09 07:29:41;;;;;;;15.6;1.9;;;;;;;2.67;72.55176;919.942;;;;
2021/02/09 07:32:07;;;;;;;7.3;1.8;;;;;;;2.71;72.51367;919.9431;;;;
2021/02/09 07:34:36;;;;;;;2.4;1.4;;;;;;;2.59;71.12402;920.007;;;;
2021/02/09 07:37:01;;;;;;;3.1;1.4;;;;;;;2.62;71.63281;919.9202;;;;
2021/02/09 07:39:30;;;;;;;1.4;1;;;;;;;2.57;73.21875;919.9966;;;;
2021/02/09 07:41:56;;;;;;;1.9;1.1;;;;;;;2.65;73.45508;920.0219;;;;
2021/02/09 07:44:24;;;;;;;3.8;1;;;;;;;2.83;72.99121;920.0237;;;;
2021/02/09 07:46:49;;;;;;;2.1;1.2;;;;;;;2.81;73.00098;920.0503;;;;
2021/02/09 07:49:17;;;;;;;1.6;1.2;;;;;;;3.01;72.39551;920.0467;;;;
2021/02/09 07:51:48;;;;;;;3.3;1.9;;;;;;;3.02;71.15234;920.0327;;;;
2021/02/09 07:54:19;;;;;;;3.8;2;;;;;;;3.08;71.20605;920.0606;;;;
2021/02/09 07:56:44;;;;;;;1.3;1.1;;;;;;;3.19;71.87695;920.0519;;;;
2021/02/09 07:59:14;;;;;;;1.3;1;;;;;;;3.28;72.75684;920.1692;;;;
2021/02/09 08:01:44;;;;;;;4.2;1.6;;;;;;;3.16;70.82715;920.1697;;;;
2021/02/09 08:04:15;;;;;;;5.3;1.8;;;;;;;3.08;70.99414;920.1667;;;;
2021/02/09 08:06:40;;;;;;;3.9;1.6;;;;;;;3.09;71.07422;920.2092;;;;
2021/02/09 08:09:10;;;;;;;3.8;1.4;;;;;;;3.05;70.82129;920.2506;;;;
2021/02/09 08:11:41;;;;;;;3.3;1.5;;;;;;;3;71.20508;920.2503;;;;
2021/02/09 08:14:12;;;;;;;3.1;1.1;;;;;;;3.03;71.3457;920.2835;;;;
2021/02/09 08:16:46;;;;;;;2;1.2;;;;;;;3.06;71.71875;920.3152;;;;
2021/02/09 08:19:17;;;;;;;3.5;1.8;;;;;;;3.09;71.96094;920.2595;;;;
2021/02/09 08:21:44;;;;;;;3.9;2;;;;;;;3.17;71.98438;920.272;;;;
2021/02/09 08:24:09;;;;;;;3.7;1.8;;;;;;;3.05;72.12109;920.2789;;;;
2021/02/09 08:26:36;;;;;;;2;1.6;;;;;;;3.11;72.60156;920.3312;;;;
2021/02/09 08:29:01;;;;;;;3.5;1.3;;;;;;;3.07;72.0127;920.3404;;;;
2021/02/09 08:31:32;;;;;;;1.7;1.4;;;;;;;3.15;72.66699;920.3403;;;;
2021/02/09 08:33:58;;;;;;;2.7;1.5;;;;;;;3.1;71.81543;920.3295;;;;
2021/02/09 08:36:23;;;;;;;3.3;2;;;;;;;3.03;72.16504;920.3747;;;;
2021/02/09 08:38:50;;;;;;;4.9;1.5;;;;;;;3.09;72.2627;920.4097;;;;
2021/02/09 08:41:16;;;;;;;3.4;2;;;;;;;3.31;72.9873;920.4196;;;;
2021/02/09 08:43:45;;;;;;;2.1;1.4;;;;;;;3.63;72.34473;920.457;;;;
2021/02/09 08:46:17;;;;;;;3.7;1.8;;;;;;;3.65;71.06738;920.4562;;;;
2021/02/09 08:48:45;;;;;;;3.3;1.9;;;;;;;3.81;70.69922;920.5369;;;;
2021/02/09 08:51:10;;;;;;;2.5;1.2;;;;;;;3.74;70.21484;920.5826;;;;
2021/02/09 08:53:39;;;;;;;2.7;1.3;;;;;;;3.68;70.22852;920.5705;;;;
2021/02/09 08:56:04;;;;;;;1.5;0.9;;;;;;;3.46;70.65234;920.5861;;;;
2021/02/09 08:58:29;;;;;;;1.3;1.1;;;;;;;3.34;71.67773;920.6125;;;;
2021/02/09 09:00:54;;;;;;;2.1;1.4;;;;;;;3.39;72.05469;920.6797;;;;
2021/02/09 09:03:23;;;;;;;5.7;2.7;;;;;;;3.39;72.74121;920.6947;;;;
2021/02/09 09:05:48;;;;;;;7.6;3.4;;;;;;;3.37;72.77148;920.6804;;;;
2021/02/09 09:08:14;;;;;;;2.8;1.5;;;;;;;3.31;72.58301;920.709;;;;
2021/02/09 09:10:51;;;;;;;2.3;1.7;;;;;;;3.4;72.85547;920.6781;;;;
2021/02/09 09:13:19;;;;;;;1.7;1.2;;;;;;;3.44;72.77344;920.678;;;;
2021/02/09 09:15:46;;;;;;;2.6;1.3;;;;;;;3.53;72.80957;920.6378;;;;
2021/02/09 09:18:16;;;;;;;1.1;0.7;;;;;;;3.66;71.77441;920.568;;;;
2021/02/09 09:20:48;;;;;;;1.1;1;;;;;;;3.63;70.19727;920.5017;;;;
2021/02/09 09:23:18;;;;;;;1.6;1;;;;;;;3.53;71.16895;920.5212;;;;
2021/02/09 09:25:50;;;;;;;3.4;1.5;;;;;;;3.87;70.82031;920.6199;;;;
2021/02/09 09:28:20;;;;;;;2.4;1.8;;;;;;;3.99;70.72949;920.6064;;;;
2021/02/09 09:30:58;;;;;;;1.4;1.3;;;;;;;4.04;70.28809;920.577;;;;
2021/02/09 09:33:27;;;;;;;2.9;1.4;;;;;;;4.3;70.68066;920.6091;;;;
2021/02/09 09:36:09;;;;;;;1.7;1.1;;;;;;;4.46;69.04102;920.632;;;;
2021/02/09 09:38:44;;;;;;;0.9;0.8;;;;;;;4.57;68.91211;920.6473;;;;
2021/02/09 09:41:11;;;;;;;0.6;0.6;;;;;;;4.65;67.13379;920.6014;;;;
2021/02/09 09:43:43;;;;;;;0.9;0.6;;;;;;;4.67;68.86133;920.5999;;;;
2021/02/09 09:46:08;;;;;;;0.6;0.6;;;;;;;4.44;66.53906;920.6596;;;;
2021/02/09 09:48:39;;;;;;;3.1;0.9;;;;;;;4.51;67.49609;920.7015;;;;
2021/02/09 09:51:10;;;;;;;0.8;0.6;;;;;;;4.81;67.67676;920.6904;;;;
2021/02/09 09:53:39;;;;;;;5.8;2.2;;;;;;;4.95;67.74512;920.7427;;;;
2021/02/09 09:56:05;;;;;;;2.8;1.1;;;;;;;4.72;65.5791;920.6277;;;;
2021/02/09 09:58:35;;;;;;;9.2;1.8;;;;;;;4.72;65.96191;920.7144;;;;
2021/02/09 10:01:07;;;;;;;5.9;2.4;;;;;;;4.68;65.22266;920.7678;;;;
2021/02/09 10:03:37;;;;;;;3.2;1.8;;;;;;;4.76;67.77148;920.7538;;;;
2021/02/09 10:06:06;;;;;;;5.4;1.3;;;;;;;4.98;67.25391;920.7545;;;;
2021/02/09 10:08:33;;;;;;;9.5;1.2;;;;;;;5.04;66.63086;920.7289;;;;
2021/02/09 10:11:00;;;;;;;2.1;1.3;;;;;;;4.91;65.42773;920.8065;;;;
2021/02/09 10:13:25;;;;;;;1.9;0.9;;;;;;;4.76;65.46191;920.8422;;;;
2021/02/09 10:16:09;;;;;;;2.2;1.1;;;;;;;4.79;65.6582;920.8588;;;;
2021/02/09 10:18:34;;;;;;;1.4;1.3;;;;;;;4.76;66.37305;920.7656;;;;
2021/02/09 10:21:01;;;;;;;1.5;1;;;;;;;4.68;65.78613;920.834;;;;
2021/02/09 10:23:26;;;;;;;8.6;1.3;;;;;;;4.74;67.25;920.9194;;;;
2021/02/09 10:25:56;;;;;;;10.7;3.5;;;;;;;4.86;67.70703;920.9183;;;;
2021/02/09 10:28:27;;;;;;;4.6;2;;;;;;;4.89;66.73242;920.834;;;;
2021/02/09 10:31:00;;;;;;;6.4;1.6;;;;;;;4.88;66.92285;920.9657;;;;
2021/02/09 10:33:29;;;;;;;1.6;1.1;;;;;;;4.67;66.03418;920.9648;;;;
2021/02/09 10:35:57;;;;;;;0.9;0.6;;;;;;;4.68;66.79004;920.9081;;;;
2021/02/09 10:38:22;;;;;;;3.7;1.1;;;;;;;4.79;66.37891;920.9021;;;;
2021/02/09 10:40:49;;;;;;;1.1;1;;;;;;;5;66.27734;920.8722;;;;
2021/02/09 10:43:14;;;;;;;1.6;1.1;;;;;;;5.04;65.22363;920.9617;;;;
2021/02/09 10:45:42;;;;;;;1.7;1.1;;;;;;;5.17;64.87012;920.961;;;;
2021/02/09 10:48:07;;;;;;;1.4;1.1;;;;;;;5.34;64.42285;920.9465;;;;
2021/02/09 10:50:38;;;;;;;1.5;0.7;;;;;;;5.47;64.92676;920.9169;;;;
2021/02/09 10:53:05;;;;;;;3.7;1.3;;;;;;;5.51;64.75293;920.8214;;;;
2021/02/09 10:55:30;;;;;;;2.5;1.1;;;;;;;5.61;64.8125;920.8594;;;;
2021/02/09 10:57:57;;;;;;;2.7;1.5;;;;;;;5.74;63.80469;920.8617;;;;
2021/02/09 11:00:23;;;;;;;1.5;1.1;;;;;;;5.89;63.16113;920.914;;;;
2021/02/09 11:02:50;;;;;;;1;0.8;;;;;;;5.9;63.21973;920.8605;;;;
2021/02/09 11:05:13;;;;;;;1.4;0.9;;;;;;;5.97;62.49414;920.8747;;;;
2021/02/09 11:07:38;;;;;;;1.1;0.9;;;;;;;5.85;63.44824;920.8911;;;;
2021/02/09 11:10:03;;;;;;;2.2;1.2;;;;;;;5.84;63.73047;920.8706;;;;
2021/02/09 11:12:31;;;;;;;1.6;1;;;;;;;6.11;62.56055;920.8889;;;;
2021/02/09 11:14:56;;;;;;;1.5;1.1;;;;;;;6.28;61.7041;920.8951;;;;
2021/02/09 11:17:25;;;;;;;2.3;1.3;;;;;;;6.38;61.45801;920.9169;;;;
2021/02/09 11:19:50;;;;;;;1.9;1;;;;;;;6.38;61.75195;920.8687;;;;
2021/02/09 11:22:20;;;;;;;1.4;0.9;;;;;;;6.37;62.13574;920.8362;;;;
2021/02/09 11:24:49;;;;;;;3.3;1.1;;;;;;;6.37;61.35547;920.8339;;;;
2021/02/09 11:27:14;;;;;;;1.4;0.9;;;;;;;6.54;60.73535;920.8248;;;;
2021/02/09 11:29:42;;;;;;;0.9;0.8;;;;;;;6.65;60.02637;920.8682;;;;
2021/02/09 11:32:15;;;;;;;3.1;1.2;;;;;;;6.62;59.77344;920.7782;;;;
2021/02/09 11:34:48;;;;;;;1.8;1.4;;;;;;;6.64;59.96875;920.752;;;;
2021/02/09 11:37:24;;;;;;;1.5;1.1;;;;;;;6.54;60.91602;920.8589;;;;
2021/02/09 11:39:56;;;;;;;2.8;1.2;;;;;;;6.58;61.1377;920.8928;;;;
2021/02/09 11:42:24;;;;;;;1.8;0.9;;;;;;;6.64;60.92871;920.8691;;;;
2021/02/09 11:45:00;;;;;;;1.5;1.1;;;;;;;6.65;60.97656;920.9378;;;;
2021/02/09 11:47:28;;;;;;;2;0.8;;;;;;;6.55;60.86035;920.9584;;;;
2021/02/09 11:49:53;;;;;;;1.3;1;;;;;;;6.56;61.49512;920.8691;;;;
2021/02/09 11:52:24;;;;;;;1.4;1;;;;;;;6.56;61.5293;920.9734;;;;
2021/02/09 11:54:55;;;;;;;1.2;0.9;;;;;;;6.34;62.00586;920.9352;;;;
2021/02/09 11:57:27;;;;;;;1.4;1;;;;;;;5.75;64.58691;920.9005;;;;
2021/02/09 11:59:59;;;;;;;2.2;1.2;;;;;;;5.88;65.44141;920.9369;;;;
2021/02/09 12:02:32;;;;;;;4.6;1.3;;;;;;;5.84;65.53613;920.8541;;;;
2021/02/09 12:05:05;;;;;;;1.3;0.9;;;;;;;5.85;65.71875;920.8557;;;;
2021/02/09 12:07:39;;;;;;;1;0.7;;;;;;;5.45;67.10156;920.8789;;;;
2021/02/09 12:10:14;;;;;;;1.5;1.1;;;;;;;5.23;68.08301;920.9306;;;;
2021/02/09 12:12:42;;;;;;;1;0.9;;;;;;;5.3;68.30762;920.9551;;;;
2021/02/09 12:15:19;;;;;;;1.3;1;;;;;;;5.33;67.65918;920.926;;;;
2021/02/09 12:17:51;;;;;;;1.1;0.9;;;;;;;5.32;67.79102;921.027;;;;
2021/02/09 12:20:21;;;;;;;2;1.4;;;;;;;5.12;68.62793;921.0453;;;;
2021/02/09 12:22:57;;;;;;;2.2;1.2;;;;;;;5.03;69.89941;921.0318;;;;
2021/02/09 12:25:27;;;;;;;1.5;1;;;;;;;4.69;70.96973;921.1281;;;;
2021/02/09 12:27:54;;;;;;;2.6;1.1;;;;;;;4.62;72.02734;921.0593;;;;
2021/02/09 12:30:21;;;;;;;2.1;1.3;;;;;;;4.81;71.72363;921.1334;;;;
2021/02/09 12:32:45;;;;;;;1.6;1.1;;;;;;;4.68;71.67676;921.1477;;;;
2021/02/09 12:35:19;;;;;;;1.8;1.1;;;;;;;4.69;71.9834;921.1533;;;;
2021/02/09 12:37:51;;;;;;;1.5;1.1;;;;;;;4.8;71.60742;921.1733;;;;
2021/02/09 12:40:21;;;;;;;1.6;1.3;;;;;;;4.93;70.71582;921.1353;;;;
2021/02/09 12:42:53;;;;;;;1.9;1.2;;;;;;;4.86;71.9209;921.1486;;;;
2021/02/09 12:45:21;;;;;;;2;1.4;;;;;;;4.86;72.1709;921.2961;;;;
2021/02/09 12:47:49;;;;;;;2.9;1.2;;;;;;;5.04;71.68066;921.3024;;;;
2021/02/09 12:50:24;;;;;;;1.6;1.3;;;;;;;5.26;71.21094;921.1484;;;;
2021/02/09 12:52:55;;;;;;;2.2;1.4;;;;;;;5.43;70.62109;921.1671;;;;
2021/02/09 12:55:33;;;;;;;2.5;1.8;;;;;;;5.49;70.15625;921.1671;;;;
2021/02/09 12:58:06;;;;;;;2.6;1.7;;;;;;;5.73;69.33789;921.2162;;;;
2021/02/09 13:00:36;;;;;;;3.1;1.4;;;;;;;5.69;68.79785;921.2819;;;;
2021/02/09 13:03:01;;;;;;;1.5;1.3;;;;;;;5.88;68.5918;921.2157;;;;
2021/02/09 13:05:31;;;;;;;1.1;0.9;;;;;;;6.02;67.15918;921.2256;;;;
2021/02/09 13:07:57;;;;;;;3.7;1;;;;;;;6.06;66.72266;921.2816;;;;
2021/02/09 13:10:35;;;;;;;1.4;0.9;;;;;;;6.08;67.29004;921.2042;;;;
2021/02/09 13:13:03;;;;;;;1.6;0.9;;;;;;;5.86;67.30273;921.312;;;;
2021/02/09 13:15:30;;;;;;;1.1;0.8;;;;;;;5.48;69.3418;921.4188;;;;
2021/02/09 13:18:05;;;;;;;1.9;1.3;;;;;;;5.43;69.62598;921.3217;;;;
2021/02/09 13:20:35;;;;;;;1.4;0.9;;;;;;;5.1;70.80273;921.353;;;;
2021/02/09 13:23:04;;;;;;;1.2;1;;;;;;;5.04;71.63574;921.3039;;;;
2021/02/09 13:25:29;;;;;;;1.4;1.1;;;;;;;5.16;72.25488;921.3033;;;;
2021/02/09 13:27:58;;;;;;;1.3;1;;;;;;;5.24;71.72559;921.3306;;;;
2021/02/09 13:30:23;;;;;;;1.9;1.1;;;;;;;5.32;71.57031;921.3481;;;;
2021/02/09 13:32:52;;;;;;;2.1;1.4;;;;;;;5.11;72.38184;921.4247;;;;
2021/02/09 13:35:18;;;;;;;1.3;1.1;;;;;;;4.88;72.81543;921.4735;;;;
2021/02/09 13:37:47;;;;;;;1.7;1.1;;;;;;;4.8;74.06348;921.4911;;;;
2021/02/09 13:40:19;;;;;;;2;1.2;;;;;;;5.07;73.0625;921.5564;;;;
2021/02/09 13:42:49;;;;;;;1.8;1;;;;;;;5.1;73.48535;921.4736;;;;
2021/02/09 13:45:20;;;;;;;1.9;1.5;;;;;;;4.93;73.69141;921.5502;;;;
2021/02/09 13:47:51;;;;;;;1.4;1.1;;;;;;;4.86;73.81543;921.5114;;;;
2021/02/09 13:50:21;;;;;;;4.8;1.6;;;;;;;4.72;74.83984;921.6902;;;;
2021/02/09 13:52:50;;;;;;;2.5;1.5;;;;;;;4.31;76.54492;921.6356;;;;
2021/02/09 13:55:15;;;;;;;1.7;1.5;;;;;;;4.14;77.51563;921.7375;;;;
2021/02/09 13:57:42;;;;;;;1.6;1.4;;;;;;;4.16;76.92188;921.7101;;;;
2021/02/09 14:00:06;;;;;;;4.2;1.8;;;;;;;3.99;77.79102;921.7859;;;;
2021/02/09 14:02:33;;;;;;;2.5;1.8;;;;;;;3.87;78.49805;921.8464;;;;
2021/02/09 14:04:58;;;;;;;3.1;1.7;;;;;;;4.16;78.01465;921.8858;;;;
2021/02/09 14:07:23;;;;;;;3.4;1.7;;;;;;;4.08;77.85254;921.8702;;;;
2021/02/09 14:09:48;;;;;;;3.7;2;;;;;;;4.22;77.59766;921.9077;;;;
2021/02/09 14:12:19;;;;;;;4;2;;;;;;;4.39;76.91992;921.9142;;;;
2021/02/09 14:14:49;;;;;;;3.7;2.1;;;;;;;4.49;76.25098;921.96;;;;
2021/02/09 14:17:18;;;;;;;2.9;1.9;;;;;;;4.43;76.1377;921.9936;;;;
2021/02/09 14:19:48;;;;;;;3.4;1.6;;;;;;;4.15;77.20215;922.0101;;;;
2021/02/09 14:22:19;;;;;;;4.2;1.6;;;;;;;4.16;77.28418;922.0338;;;;
2021/02/09 14:24:44;;;;;;;2.1;1.5;;;;;;;4.13;77.31152;922.058;;;;
2021/02/09 14:27:13;;;;;;;3.7;2.2;;;;;;;4.01;78.02051;922.1052;;;;
2021/02/09 14:29:43;;;;;;;2.7;2;;;;;;;4.05;78.02539;922.1149;;;;
2021/02/09 14:32:08;;;;;;;2.9;2.1;;;;;;;3.85;78.64258;922.11;;;;
2021/02/09 14:34:34;;;;;;;2.6;2;;;;;;;4.04;78.14941;922.0952;;;;
2021/02/09 14:36:59;;;;;;;3.7;2.1;;;;;;;4.12;77.84766;922.0682;;;;
2021/02/09 14:39:26;;;;;;;2.1;1.8;;;;;;;3.95;78.43652;922.0966;;;;
2021/02/09 14:41:51;;;;;;;1.6;1.4;;;;;;;4.02;78.31445;922.0903;;;;
2021/02/09 14:44:22;;;;;;;2.4;1.8;;;;;;;3.75;79.72461;922.0868;;;;
2021/02/09 14:46:51;;;;;;;2.5;1.8;;;;;;;3.64;80.14355;922.0442;;;;
2021/02/09 14:49:23;;;;;;;3;1.7;;;;;;;3.44;81.19434;922.0696;;;;
2021/02/09 14:51:52;;;;;;;3.3;2.1;;;;;;;3.28;81.89453;922.0536;;;;
2021/02/09 14:54:17;;;;;;;3.2;1.9;;;;;;;3.29;81.81543;922.0781;;;;
2021/02/09 14:56:50;;;;;;;5.3;2.2;;;;;;;3.35;81.40137;922.1086;;;;
2021/02/09 14:59:18;;;;;;;4;2.4;;;;;;;3.27;81.91504;922.1149;;;;
2021/02/09 15:01:43;;;;;;;2.4;2;;;;;;;3.2;81.86719;922.1013;;;;
2021/02/09 15:04:09;;;;;;;3.6;2;;;;;;;3.02;83.44824;922.1834;;;;
2021/02/09 15:06:34;;;;;;;2.5;1.6;;;;;;;3.19;82.60645;922.1436;;;;
2021/02/09 15:08:59;;;;;;;4.3;2.5;;;;;;;3.2;82.02441;922.1925;;;;
2021/02/09 15:11:26;;;;;;;4.1;3;;;;;;;3.18;81.55957;922.2017;;;;
2021/02/09 15:13:55;;;;;;;3.3;2.1;;;;;;;3.28;81.3877;922.1542;;;;
2021/02/09 15:16:23;;;;;;;3.4;2.3;;;;;;;3.13;81.75293;922.2083;;;;
2021/02/09 15:18:51;;;;;;;3.4;1.9;;;;;;;2.77;83.52246;922.2483;;;;
2021/02/09 15:21:19;;;;;;;5.3;2.4;;;;;;;;;;;;;
2021/02/09 15:23:44;;;;;;;3.2;2.7;;;;;;;;;;;;;
2021/02/09 15:26:11;;;;;;;3.9;2;;;;;;;;;;;;;
2021/02/09 15:28:36;;;;;;;5.4;2.7;;;;;;;;;;;;;
2021/02/09 15:31:03;;;;;;;2.9;2.5;;;;;;;;;;;;;
2021/02/09 15:33:27;;;;;;;5.9;3;;;;;;;;;;;;;
2021/02/09 15:35:53;;;;;;;3;1.8;;;;;;;;;;;;;
2021/02/09 15:38:18;;;;;;;7.4;3.3;;;;;;;;;;;;;
2021/02/09 15:40:45;;;;;;;5.1;3.4;;;;;;;;;;;;;
2021/02/09 15:43:11;;;;;;;5.5;3.5;;;;;;;;;;;;;
2021/02/09 15:45:36;;;;;;;3.1;2;;;;;;;;;;;;;
2021/02/09 15:48:01;;;;;;;4.2;2.9;;;;;;;;;;;;;
2021/02/09 15:50:28;;;;;;;6.4;3.5;;;;;;;;;;;;;
2021/02/09 15:52:53;;;;;;;6.2;3;;;;;;;;;;;;;
2021/02/09 15:55:19;;;;;;;5.1;3.4;;;;;;;;;;;;;
2021/02/09 15:57:44;;;;;;;4.8;3.4;;;;;;;;;;;;;
2021/02/09 16:00:10;;;;;;;4.6;2.8;;;;;;;;;;;;;
2021/02/09 16:02:36;;;;;;;7;3.2;;;;;;;;;;;;;
2021/02/09 16:05:01;;;;;;;6.5;3;;;;;;;;;;;;;
2021/02/09 16:07:26;;;;;;;7.3;4.2;;;;;;;;;;;;;
2021/02/09 16:09:51;;;;;;;3.6;2.9;;;;;;;;;;;;;
2021/02/09 16:12:17;;;;;;;5.6;3.2;;;;;;;;;;;;;